DLH64 EDDF-LSZH
Flight info
| Callsign | DLH64 |
|---|---|
| Flight time | 0h 43m |
| Altitude | 23000 |
| Route | ANEKI2L/18 ANEKI Y163 NEKLO Y171 INKAM T725 LAMGO T721 RILAX |
| Aircraft | A359/H-SDE2E3GHIJ3J4J5LM1ORWXY/LB1D1 |
Departure
| Time | 2026-05-05 19:46 |
|---|---|
| Airport | Frankfurt Main Airport (EDDF) |
Arrival
| Time | 2026-05-05 20:30 |
|---|---|
| Airport | Zürich Airport (LSZH) |
| Time | Latitude | Longitude | Altitude | Speed | Heading |
|---|---|---|---|---|---|
| 2026-05-05 18:49 | 50.04699 | 8.56161 | 362 ft | 0 kts | 340° |
| 2026-05-05 19:26 | 50.04689 | 8.56166 | 362 ft | 4 kts | 340° |
| 2026-05-05 19:27 | 50.04664 | 8.56180 | 368 ft | 4 kts | 339° |
| 2026-05-05 19:27 | 50.04639 | 8.56197 | 368 ft | 4 kts | 330° |
| 2026-05-05 19:27 | 50.04620 | 8.56220 | 364 ft | 4 kts | 285° |
| 2026-05-05 19:27 | 50.04617 | 8.56224 | 364 ft | 4 kts | 250° |
| 2026-05-05 19:28 | 50.04607 | 8.56185 | 365 ft | 4 kts | 249° |
| 2026-05-05 19:28 | 50.04598 | 8.56146 | 368 ft | 4 kts | 249° |
| 2026-05-05 19:28 | 50.04588 | 8.56107 | 369 ft | 4 kts | 249° |
| 2026-05-05 19:28 | 50.04582 | 8.56082 | 369 ft | 0 kts | 250° |
| 2026-05-05 19:36 | 50.04578 | 8.56063 | 366 ft | 5 kts | 250° |
| 2026-05-05 19:36 | 50.04550 | 8.55992 | 369 ft | 10 kts | 226° |
| 2026-05-05 19:36 | 50.04473 | 8.55933 | 369 ft | 14 kts | 198° |
| 2026-05-05 19:36 | 50.04367 | 8.55921 | 366 ft | 17 kts | 167° |
| 2026-05-05 19:37 | 50.04323 | 8.55942 | 367 ft | 0 kts | 161° |
| 2026-05-05 19:37 | 50.04315 | 8.55946 | 364 ft | 3 kts | 163° |
| 2026-05-05 19:37 | 50.04269 | 8.55953 | 363 ft | 9 kts | 187° |
| 2026-05-05 19:38 | 50.04221 | 8.55859 | 364 ft | 14 kts | 249° |
| 2026-05-05 19:38 | 50.04178 | 8.55683 | 367 ft | 20 kts | 249° |
| 2026-05-05 19:38 | 50.04121 | 8.55450 | 367 ft | 25 kts | 249° |
| 2026-05-05 19:38 | 50.04059 | 8.55184 | 364 ft | 27 kts | 252° |
| 2026-05-05 19:39 | 50.03994 | 8.54911 | 363 ft | 28 kts | 249° |
| 2026-05-05 19:39 | 50.03921 | 8.54608 | 360 ft | 31 kts | 247° |
| 2026-05-05 19:39 | 50.03825 | 8.54308 | 362 ft | 29 kts | 240° |
| 2026-05-05 19:39 | 50.03757 | 8.54049 | 357 ft | 26 kts | 249° |
| 2026-05-05 19:40 | 50.03696 | 8.53793 | 357 ft | 25 kts | 249° |
| 2026-05-05 19:40 | 50.03629 | 8.53518 | 355 ft | 29 kts | 249° |
| 2026-05-05 19:40 | 50.03564 | 8.53246 | 355 ft | 19 kts | 249° |
| 2026-05-05 19:40 | 50.03527 | 8.53097 | 353 ft | 16 kts | 249° |
| 2026-05-05 19:41 | 50.03481 | 8.52911 | 349 ft | 20 kts | 248° |
| 2026-05-05 19:41 | 50.03473 | 8.52883 | 350 ft | 1 kts | 247° |
| 2026-05-05 19:41 | 50.03465 | 8.52854 | 354 ft | 5 kts | 247° |
| 2026-05-05 19:41 | 50.03445 | 8.52777 | 351 ft | 9 kts | 248° |
| 2026-05-05 19:42 | 50.03443 | 8.52770 | 350 ft | 0 kts | 248° |
| 2026-05-05 19:44 | 50.03437 | 8.52745 | 353 ft | 6 kts | 248° |
| 2026-05-05 19:45 | 50.03405 | 8.52653 | 352 ft | 13 kts | 232° |
| 2026-05-05 19:45 | 50.03324 | 8.52597 | 349 ft | 0 kts | 183° |
| 2026-05-05 19:45 | 50.03314 | 8.52596 | 345 ft | 5 kts | 183° |
| 2026-05-05 19:45 | 50.03065 | 8.52594 | 342 ft | 80 kts | 179° |
| 2026-05-05 19:46 | 50.02231 | 8.52605 | 344 ft | 156 kts | 176° |
| 2026-05-05 19:46 | 50.01084 | 8.52652 | 1149 ft | 158 kts | 180° |
| 2026-05-05 19:46 | 50.00026 | 8.52643 | 2278 ft | 146 kts | 185° |
| 2026-05-05 19:46 | 49.99050 | 8.52544 | 3241 ft | 137 kts | 189° |
| 2026-05-05 19:47 | 49.98061 | 8.52563 | 3826 ft | 156 kts | 179° |
| 2026-05-05 19:47 | 49.96821 | 8.52732 | 4020 ft | 199 kts | 178° |
| 2026-05-05 19:47 | 49.95365 | 8.52904 | 4011 ft | 222 kts | 179° |
| 2026-05-05 19:47 | 49.93799 | 8.53057 | 3981 ft | 228 kts | 179° |
| 2026-05-05 19:48 | 49.92210 | 8.53190 | 3991 ft | 228 kts | 179° |
| 2026-05-05 19:48 | 49.90625 | 8.53310 | 3999 ft | 228 kts | 180° |
| 2026-05-05 19:48 | 49.89041 | 8.53423 | 3999 ft | 228 kts | 180° |
| 2026-05-05 19:48 | 49.87461 | 8.53532 | 3998 ft | 227 kts | 180° |
| 2026-05-05 19:49 | 49.85882 | 8.53638 | 3999 ft | 227 kts | 180° |
| 2026-05-05 19:49 | 49.84310 | 8.53743 | 4038 ft | 225 kts | 180° |
| 2026-05-05 19:49 | 49.82727 | 8.53846 | 4494 ft | 230 kts | 180° |
| 2026-05-05 19:49 | 49.81148 | 8.53949 | 5541 ft | 230 kts | 180° |
| 2026-05-05 19:50 | 49.79544 | 8.54053 | 6691 ft | 232 kts | 180° |
| 2026-05-05 19:50 | 49.77928 | 8.54084 | 7806 ft | 234 kts | 185° |
| 2026-05-05 19:50 | 49.76235 | 8.53910 | 8607 ft | 255 kts | 187° |
| 2026-05-05 19:50 | 49.74408 | 8.53661 | 9526 ft | 270 kts | 187° |
| 2026-05-05 19:51 | 49.72502 | 8.53399 | 10439 ft | 285 kts | 187° |
| 2026-05-05 19:51 | 49.70427 | 8.53115 | 10973 ft | 313 kts | 187° |
| 2026-05-05 19:51 | 49.68201 | 8.52817 | 11753 ft | 328 kts | 186° |
| 2026-05-05 19:51 | 49.65890 | 8.52513 | 12749 ft | 337 kts | 186° |
| 2026-05-05 19:52 | 49.63539 | 8.52205 | 13830 ft | 342 kts | 187° |
| 2026-05-05 19:52 | 49.61180 | 8.51894 | 14765 ft | 348 kts | 186° |
| 2026-05-05 19:52 | 49.58742 | 8.51573 | 15664 ft | 355 kts | 186° |
| 2026-05-05 19:52 | 49.56265 | 8.51247 | 16607 ft | 360 kts | 186° |
| 2026-05-05 19:53 | 49.53743 | 8.50916 | 17542 ft | 366 kts | 186° |
| 2026-05-05 19:53 | 49.51180 | 8.50580 | 18443 ft | 372 kts | 186° |
| 2026-05-05 19:53 | 49.48586 | 8.50240 | 19351 ft | 377 kts | 185° |
| 2026-05-05 19:53 | 49.45960 | 8.49897 | 20300 ft | 380 kts | 185° |
| 2026-05-05 19:54 | 49.43315 | 8.49551 | 21246 ft | 384 kts | 185° |
| 2026-05-05 19:54 | 49.40674 | 8.49206 | 22112 ft | 388 kts | 185° |
| 2026-05-05 19:54 | 49.37976 | 8.48854 | 22662 ft | 392 kts | 185° |
| 2026-05-05 19:54 | 49.35240 | 8.48498 | 22830 ft | 401 kts | 185° |
| 2026-05-05 19:55 | 49.32417 | 8.48146 | 22830 ft | 411 kts | 183° |
| 2026-05-05 19:55 | 49.29556 | 8.48282 | 22826 ft | 414 kts | 173° |
| 2026-05-05 19:55 | 49.26763 | 8.49343 | 22825 ft | 415 kts | 160° |
| 2026-05-05 19:55 | 49.24218 | 8.51426 | 22828 ft | 416 kts | 146° |
| 2026-05-05 19:56 | 49.21792 | 8.53836 | 22818 ft | 416 kts | 148° |
| 2026-05-05 19:56 | 49.19362 | 8.56239 | 22818 ft | 416 kts | 148° |
| 2026-05-05 19:56 | 49.16950 | 8.58675 | 22818 ft | 415 kts | 147° |
| 2026-05-05 19:56 | 49.14453 | 8.60870 | 22820 ft | 413 kts | 154° |
| 2026-05-05 19:57 | 49.11902 | 8.62760 | 22817 ft | 413 kts | 156° |
| 2026-05-05 19:57 | 49.09287 | 8.64561 | 22820 ft | 413 kts | 157° |
| 2026-05-05 19:57 | 49.06650 | 8.66296 | 22820 ft | 413 kts | 158° |
| 2026-05-05 19:57 | 49.04006 | 8.67998 | 22821 ft | 413 kts | 158° |
| 2026-05-05 19:58 | 49.01360 | 8.69689 | 22826 ft | 413 kts | 158° |
| 2026-05-05 19:58 | 48.98711 | 8.71384 | 22823 ft | 413 kts | 158° |
| 2026-05-05 19:58 | 48.96072 | 8.73078 | 22826 ft | 412 kts | 158° |
| 2026-05-05 19:58 | 48.93434 | 8.74776 | 22823 ft | 411 kts | 158° |
| 2026-05-05 19:59 | 48.90753 | 8.76287 | 22828 ft | 410 kts | 165° |
| 2026-05-05 19:59 | 48.87991 | 8.77050 | 22830 ft | 409 kts | 176° |
| 2026-05-05 19:59 | 48.85151 | 8.76943 | 22829 ft | 409 kts | 185° |
| 2026-05-05 19:59 | 48.82332 | 8.76417 | 22831 ft | 409 kts | 188° |
| 2026-05-05 20:00 | 48.79523 | 8.75704 | 22834 ft | 409 kts | 190° |
| 2026-05-05 20:00 | 48.76732 | 8.74911 | 22837 ft | 408 kts | 191° |
| 2026-05-05 20:00 | 48.73939 | 8.74097 | 22839 ft | 408 kts | 191° |
| 2026-05-05 20:00 | 48.71150 | 8.73295 | 22839 ft | 408 kts | 190° |
| 2026-05-05 20:01 | 48.68364 | 8.72513 | 22840 ft | 408 kts | 190° |
| 2026-05-05 20:01 | 48.65573 | 8.71748 | 22840 ft | 408 kts | 190° |
| 2026-05-05 20:01 | 48.62783 | 8.70997 | 22838 ft | 408 kts | 189° |
| 2026-05-05 20:01 | 48.60025 | 8.70262 | 22837 ft | 408 kts | 189° |
| 2026-05-05 20:02 | 48.57230 | 8.69522 | 22844 ft | 408 kts | 189° |
| 2026-05-05 20:02 | 48.54440 | 8.68784 | 22843 ft | 408 kts | 189° |
| 2026-05-05 20:02 | 48.51643 | 8.68044 | 22843 ft | 408 kts | 189° |
| 2026-05-05 20:02 | 48.48848 | 8.67305 | 22848 ft | 408 kts | 189° |
| 2026-05-05 20:03 | 48.46053 | 8.66566 | 22850 ft | 408 kts | 189° |
| 2026-05-05 20:03 | 48.43259 | 8.65827 | 22849 ft | 408 kts | 189° |
| 2026-05-05 20:03 | 48.40503 | 8.65100 | 22857 ft | 408 kts | 189° |
| 2026-05-05 20:03 | 48.37713 | 8.64364 | 22856 ft | 407 kts | 189° |
| 2026-05-05 20:04 | 48.36059 | 8.63911 | 22856 ft | 407 kts | 190° |
| 2026-05-05 20:05 | 48.33963 | 8.63301 | 22855 ft | 408 kts | 191° |
| 2026-05-05 20:05 | 48.31185 | 8.62454 | 22860 ft | 407 kts | 191° |
| 2026-05-05 20:05 | 48.28419 | 8.61595 | 22858 ft | 406 kts | 191° |
| 2026-05-05 20:05 | 48.25652 | 8.60737 | 22719 ft | 411 kts | 191° |
| 2026-05-05 20:06 | 48.22809 | 8.59863 | 22500 ft | 420 kts | 191° |
| 2026-05-05 20:06 | 48.19939 | 8.58990 | 22238 ft | 421 kts | 191° |
| 2026-05-05 20:06 | 48.17106 | 8.58135 | 21967 ft | 420 kts | 191° |
| 2026-05-05 20:06 | 48.14214 | 8.57266 | 21707 ft | 418 kts | 191° |
| 2026-05-05 20:07 | 48.11396 | 8.56429 | 21447 ft | 417 kts | 192° |
| 2026-05-05 20:07 | 48.08568 | 8.55591 | 21183 ft | 413 kts | 192° |
| 2026-05-05 20:07 | 48.05756 | 8.54757 | 20931 ft | 411 kts | 192° |
| 2026-05-05 20:07 | 48.02957 | 8.53926 | 20678 ft | 409 kts | 192° |
| 2026-05-05 20:08 | 48.00169 | 8.53109 | 20427 ft | 408 kts | 191° |
| 2026-05-05 20:08 | 47.97339 | 8.52698 | 20228 ft | 410 kts | 181° |
| 2026-05-05 20:08 | 47.94508 | 8.53220 | 20218 ft | 413 kts | 168° |
| 2026-05-05 20:08 | 47.91827 | 8.54753 | 20216 ft | 417 kts | 154° |
| 2026-05-05 20:09 | 47.89434 | 8.57223 | 20144 ft | 419 kts | 145° |
| 2026-05-05 20:09 | 47.87166 | 8.59960 | 19737 ft | 420 kts | 143° |
| 2026-05-05 20:09 | 47.84948 | 8.62679 | 19066 ft | 419 kts | 143° |
| 2026-05-05 20:09 | 47.82706 | 8.65421 | 18352 ft | 416 kts | 143° |
| 2026-05-05 20:10 | 47.80473 | 8.68141 | 17571 ft | 412 kts | 143° |
| 2026-05-05 20:10 | 47.78266 | 8.70822 | 16783 ft | 409 kts | 144° |
| 2026-05-05 20:10 | 47.76075 | 8.73479 | 16160 ft | 404 kts | 144° |
| 2026-05-05 20:10 | 47.73902 | 8.76108 | 15911 ft | 403 kts | 144° |
| 2026-05-05 20:11 | 47.71729 | 8.78731 | 15602 ft | 402 kts | 144° |
| 2026-05-05 20:11 | 47.69565 | 8.81342 | 15089 ft | 399 kts | 144° |
| 2026-05-05 20:11 | 47.67418 | 8.83928 | 14581 ft | 397 kts | 144° |
| 2026-05-05 20:11 | 47.65307 | 8.86469 | 14063 ft | 395 kts | 144° |
| 2026-05-05 20:12 | 47.63192 | 8.89014 | 13541 ft | 392 kts | 144° |
| 2026-05-05 20:12 | 47.61073 | 8.91561 | 13056 ft | 392 kts | 144° |
| 2026-05-05 20:12 | 47.59033 | 8.94236 | 12893 ft | 394 kts | 136° |
| 2026-05-05 20:12 | 47.57526 | 8.97650 | 12894 ft | 400 kts | 115° |
| 2026-05-05 20:13 | 47.56914 | 9.01628 | 12893 ft | 397 kts | 94° |
| 2026-05-05 20:13 | 47.57292 | 9.05702 | 12893 ft | 404 kts | 72° |
| 2026-05-05 20:13 | 47.58615 | 9.09361 | 12895 ft | 407 kts | 51° |
| 2026-05-05 20:13 | 47.60708 | 9.12124 | 12890 ft | 401 kts | 30° |
| 2026-05-05 20:14 | 47.63184 | 9.13552 | 12881 ft | 362 kts | 7° |
| 2026-05-05 20:14 | 47.65481 | 9.13448 | 12872 ft | 313 kts | 339° |
| 2026-05-05 20:14 | 47.67211 | 9.11984 | 12873 ft | 272 kts | 308° |
| 2026-05-05 20:14 | 47.68031 | 9.09598 | 12886 ft | 256 kts | 275° |
| 2026-05-05 20:15 | 47.67770 | 9.07071 | 12895 ft | 250 kts | 242° |
| 2026-05-05 20:15 | 47.66552 | 9.05288 | 12875 ft | 254 kts | 208° |
| 2026-05-05 20:15 | 47.64798 | 9.04895 | 12889 ft | 265 kts | 175° |
| 2026-05-05 20:15 | 47.63114 | 9.06102 | 12897 ft | 281 kts | 142° |
| 2026-05-05 20:16 | 47.62077 | 9.08580 | 12886 ft | 292 kts | 109° |
| 2026-05-05 20:16 | 47.62060 | 9.11589 | 12885 ft | 298 kts | 76° |
| 2026-05-05 20:16 | 47.63071 | 9.14187 | 12885 ft | 298 kts | 43° |
| 2026-05-05 20:16 | 47.64834 | 9.15673 | 12896 ft | 291 kts | 10° |
| 2026-05-05 20:17 | 47.66796 | 9.15591 | 12894 ft | 279 kts | 336° |
| 2026-05-05 20:17 | 47.68342 | 9.14034 | 12878 ft | 265 kts | 303° |
| 2026-05-05 20:17 | 47.68989 | 9.11590 | 12882 ft | 254 kts | 270° |
| 2026-05-05 20:17 | 47.68559 | 9.09125 | 12891 ft | 250 kts | 237° |
| 2026-05-05 20:18 | 47.67319 | 9.07323 | 12858 ft | 252 kts | 222° |
| 2026-05-05 20:18 | 47.65878 | 9.05824 | 12529 ft | 255 kts | 211° |
| 2026-05-05 20:18 | 47.64170 | 9.05026 | 11995 ft | 262 kts | 191° |
| 2026-05-05 20:18 | 47.62364 | 9.04805 | 11473 ft | 267 kts | 185° |
| 2026-05-05 20:19 | 47.60495 | 9.04731 | 10958 ft | 270 kts | 184° |
| 2026-05-05 20:19 | 47.58611 | 9.04697 | 10449 ft | 272 kts | 183° |
| 2026-05-05 20:19 | 47.56715 | 9.04678 | 9938 ft | 273 kts | 182° |
| 2026-05-05 20:19 | 47.54812 | 9.04666 | 9406 ft | 273 kts | 182° |
| 2026-05-05 20:20 | 47.52915 | 9.04659 | 8861 ft | 273 kts | 182° |
| 2026-05-05 20:20 | 47.51012 | 9.04652 | 8326 ft | 273 kts | 183° |
| 2026-05-05 20:20 | 47.49108 | 9.04645 | 7792 ft | 273 kts | 183° |
| 2026-05-05 20:20 | 47.47270 | 9.04642 | 7286 ft | 261 kts | 184° |
| 2026-05-05 20:21 | 47.45534 | 9.04519 | 6960 ft | 238 kts | 193° |
| 2026-05-05 20:21 | 47.44064 | 9.03710 | 6677 ft | 217 kts | 214° |
| 2026-05-05 20:21 | 47.43029 | 9.02232 | 6410 ft | 200 kts | 237° |
| 2026-05-05 20:21 | 47.42659 | 9.00367 | 6150 ft | 185 kts | 266° |
| 2026-05-05 20:22 | 47.42690 | 8.98514 | 5860 ft | 176 kts | 272° |
| 2026-05-05 20:22 | 47.42792 | 8.96757 | 5570 ft | 168 kts | 274° |
| 2026-05-05 20:22 | 47.42904 | 8.95082 | 5285 ft | 160 kts | 274° |
| 2026-05-05 20:22 | 47.43019 | 8.93467 | 5044 ft | 156 kts | 274° |
| 2026-05-05 20:23 | 47.43132 | 8.91926 | 4981 ft | 147 kts | 274° |
| 2026-05-05 20:23 | 47.43243 | 8.90447 | 4990 ft | 147 kts | 274° |
| 2026-05-05 20:23 | 47.43351 | 8.88993 | 4983 ft | 136 kts | 274° |
| 2026-05-05 20:23 | 47.43450 | 8.87633 | 4981 ft | 132 kts | 274° |
| 2026-05-05 20:24 | 47.43548 | 8.86288 | 4988 ft | 132 kts | 274° |
| 2026-05-05 20:24 | 47.43646 | 8.84945 | 4984 ft | 131 kts | 274° |
| 2026-05-05 20:24 | 47.43741 | 8.83605 | 4984 ft | 132 kts | 274° |
| 2026-05-05 20:24 | 47.43839 | 8.82264 | 4988 ft | 131 kts | 274° |
| 2026-05-05 20:25 | 47.43940 | 8.80928 | 4910 ft | 131 kts | 274° |
| 2026-05-05 20:25 | 47.44038 | 8.79593 | 4806 ft | 130 kts | 274° |
| 2026-05-05 20:25 | 47.44134 | 8.78259 | 4721 ft | 130 kts | 274° |
| 2026-05-05 20:25 | 47.44231 | 8.76932 | 4682 ft | 129 kts | 274° |
| 2026-05-05 20:26 | 47.44329 | 8.75639 | 4681 ft | 128 kts | 272° |
| 2026-05-05 20:26 | 47.44421 | 8.74336 | 4688 ft | 128 kts | 272° |
| 2026-05-05 20:26 | 47.44515 | 8.73040 | 4426 ft | 127 kts | 272° |
| 2026-05-05 20:26 | 47.44607 | 8.71765 | 4155 ft | 124 kts | 272° |
| 2026-05-05 20:27 | 47.44700 | 8.70471 | 3872 ft | 123 kts | 272° |
| 2026-05-05 20:27 | 47.44789 | 8.69249 | 3862 ft | 119 kts | 272° |
| 2026-05-05 20:27 | 47.44877 | 8.68011 | 3721 ft | 127 kts | 271° |
| 2026-05-05 20:27 | 47.44960 | 8.66630 | 3142 ft | 145 kts | 271° |
| 2026-05-05 20:28 | 47.45053 | 8.65079 | 2564 ft | 156 kts | 272° |
| 2026-05-05 20:28 | 47.45178 | 8.63503 | 2146 ft | 154 kts | 275° |
| 2026-05-05 20:28 | 47.45287 | 8.61971 | 1923 ft | 142 kts | 274° |
| 2026-05-05 20:28 | 47.45406 | 8.60594 | 1775 ft | 130 kts | 276° |
| 2026-05-05 20:29 | 47.45496 | 8.59344 | 1725 ft | 128 kts | 272° |
| 2026-05-05 20:29 | 47.45589 | 8.58006 | 1601 ft | 129 kts | 273° |
| 2026-05-05 20:29 | 47.45680 | 8.56695 | 1442 ft | 127 kts | 273° |
| 2026-05-05 20:29 | 47.45757 | 8.55509 | 1412 ft | 102 kts | 276° |
| 2026-05-05 20:30 | 47.45815 | 8.54873 | 1404 ft | 40 kts | 279° |
| 2026-05-05 20:30 | 47.45931 | 8.54708 | 1407 ft | 22 kts | 341° |
| 2026-05-05 20:30 | 47.46139 | 8.54580 | 1404 ft | 40 kts | 334° |
| 2026-05-05 20:30 | 47.46373 | 8.54428 | 1400 ft | 18 kts | 352° |
| 2026-05-05 20:31 | 47.46472 | 8.54559 | 1400 ft | 23 kts | 79° |
| 2026-05-05 20:31 | 47.46446 | 8.54638 | 1404 ft | 1 kts | 146° |
| 2026-05-05 20:31 | 47.46445 | 8.54640 | 1404 ft | 0 kts | 146° |
| 2026-05-05 20:32 | 47.46443 | 8.54641 | 1404 ft | 1 kts | 146° |
| 2026-05-05 20:32 | 47.46423 | 8.54662 | 1402 ft | 6 kts | 145° |
| 2026-05-05 20:32 | 47.46373 | 8.54702 | 1403 ft | 10 kts | 156° |
| 2026-05-05 20:32 | 47.46296 | 8.54751 | 1398 ft | 13 kts | 157° |
| 2026-05-05 20:33 | 47.46207 | 8.54813 | 1403 ft | 16 kts | 155° |
| 2026-05-05 20:33 | 47.46083 | 8.54899 | 1407 ft | 23 kts | 155° |
| 2026-05-05 20:33 | 47.46000 | 8.54981 | 1408 ft | 8 kts | 104° |
| 2026-05-05 20:33 | 47.45992 | 8.55104 | 1405 ft | 16 kts | 94° |
| 2026-05-05 20:34 | 47.45983 | 8.55248 | 1402 ft | 11 kts | 96° |
| 2026-05-05 20:34 | 47.46001 | 8.55314 | 1412 ft | 6 kts | 25° |
| 2026-05-05 20:34 | 47.46041 | 8.55332 | 1409 ft | 0 kts | 7° |
| 2026-05-05 20:34 | 47.46050 | 8.55335 | 1409 ft | 2 kts | 11° |
| 2026-05-05 20:35 | 47.46062 | 8.55337 | 1411 ft | 2 kts | 6° |
| 2026-05-05 20:35 | 47.46064 | 8.55337 | 1410 ft | 0 kts | 6° |